Time;durP1;ratioP1;P1;durP2;ratioP2;P2;SDS_P1;SDS_P2;PMS_P1;PMS_P2;Temp;Humidity;BMP_temperature;BMP_pressure;BME280_temperature;BME280_humidity;BME280_pressure;Samples;Min_cycle;Max_cycle;Signal;HPM_P1;HPM_P2
2022/09/01 00:00:32;;;;;;;22.25;12.80;;;;;;;;;;10423458;28;20139;-88
2022/09/01 00:05:33;;;;;;;16.63;11.50;;;;;;;;;;10421532;28;20045;-79
2022/09/01 00:10:33;;;;;;;17.73;12.43;;;;;;;;;;10421040;28;20025;-81
2022/09/01 00:15:34;;;;;;;18.15;12.48;;;;;;;;;;10421463;28;20021;-87
2022/09/01 00:20:35;;;;;;;25.45;12.13;;;;;;;;;;10421994;28;20206;-84
2022/09/01 00:25:35;;;;;;;19.35;11.95;;;;;;;;;;10420630;28;20021;-80
2022/09/01 00:30:36;;;;;;;16.40;12.27;;;;;;;;;;10379888;28;1189637;-79
2022/09/01 00:35:36;;;;;;;24.98;13.40;;;;;;;;;;10421859;28;20131;-84
2022/09/01 00:40:37;;;;;;;30.93;15.57;;;;;;;;;;10429517;28;20025;-80
2022/09/01 00:45:37;;;;;;;23.05;13.30;;;;;;;;;;10464714;28;20021;-81
2022/09/01 00:50:37;;;;;;;19.92;12.73;;;;;;;;;;10438641;28;20111;-83
2022/09/01 00:55:38;;;;;;;19.07;11.93;;;;;;;;;;10429496;28;20021;-83
2022/09/01 01:00:39;;;;;;;21.97;13.67;;;;;;;;;;10430638;28;20324;-83
2022/09/01 01:05:45;;;;;;;24.27;14.95;;;;;;;;;;10428502;28;20271;-84
2022/09/01 01:10:45;;;;;;;19.02;12.82;;;;;;;;;;10447340;28;20025;-85
2022/09/01 01:15:46;;;;;;;19.50;13.00;;;;;;;;;;10447670;28;20517;-84
2022/09/01 01:26:08;;;;;;;24.52;14.68;;;;;;;;;;10445052;28;20021;-79
2022/09/01 01:31:13;;;;;;;18.00;13.38;;;;;;;;;;10428192;28;20045;-84
2022/09/01 01:36:15;;;;;;;22.98;13.48;;;;;;;;;;10428215;28;20037;-80
2022/09/01 01:41:18;;;;;;;23.08;13.07;;;;;;;;;;10444752;28;20037;-79
2022/09/01 01:46:18;;;;;;;21.20;13.38;;;;;;;;;;10427711;28;20025;-84
2022/09/01 01:51:20;;;;;;;25.90;17.10;;;;;;;;;;10426630;28;20028;-85
2022/09/01 01:56:24;;;;;;;28.20;16.05;;;;;;;;;;10427863;28;20025;-85
2022/09/01 02:01:27;;;;;;;22.55;15.10;;;;;;;;;;10446809;28;20036;-83
2022/09/01 02:06:28;;;;;;;24.95;14.63;;;;;;;;;;10437331;28;20070;-84
2022/09/01 02:11:29;;;;;;;24.60;15.40;;;;;;;;;;10435880;28;20174;-82
2022/09/01 02:16:31;;;;;;;28.52;17.25;;;;;;;;;;10436690;28;20037;-85
2022/09/01 02:21:32;;;;;;;22.25;14.48;;;;;;;;;;10447620;28;20025;-81
2022/09/01 02:26:38;;;;;;;29.35;14.50;;;;;;;;;;10425351;28;20410;-80
2022/09/01 02:31:38;;;;;;;23.98;15.32;;;;;;;;;;10426391;28;20067;-84
2022/09/01 02:36:46;;;;;;;23.80;14.53;;;;;;;;;;10427798;28;20033;-88
2022/09/01 02:41:46;;;;;;;25.73;15.10;;;;;;;;;;10425327;28;20284;-79
2022/09/01 02:46:47;;;;;;;24.42;14.82;;;;;;;;;;10424482;28;20028;-80
2022/09/01 02:51:52;;;;;;;22.92;14.60;;;;;;;;;;10424753;28;20032;-81
2022/09/01 02:56:53;;;;;;;23.17;13.55;;;;;;;;;;10443141;28;20020;-80
2022/09/01 03:01:54;;;;;;;22.42;13.52;;;;;;;;;;10424471;28;20025;-84
2022/09/01 03:06:57;;;;;;;24.05;14.50;;;;;;;;;;10425357;28;20048;-86
2022/09/01 03:11:57;;;;;;;27.00;13.63;;;;;;;;;;10424148;28;20017;-80
2022/09/01 03:16:59;;;;;;;21.30;13.87;;;;;;;;;;10423406;28;20029;-87
2022/09/01 03:21:59;;;;;;;25.30;14.30;;;;;;;;;;10423257;28;20020;-84
2022/09/01 03:26:59;;;;;;;26.60;15.00;;;;;;;;;;10423026;28;20028;-79
2022/09/01 03:32:00;;;;;;;21.17;12.63;;;;;;;;;;10423130;28;20110;-84
2022/09/01 03:37:02;;;;;;;23.75;13.27;;;;;;;;;;10417680;23;20061;-86
2022/09/01 03:42:03;;;;;;;22.05;13.32;;;;;;;;;;10381744;28;20021;-78
2022/09/01 03:47:03;;;;;;;21.10;13.77;;;;;;;;;;10356692;28;20026;-84
2022/09/01 03:52:07;;;;;;;25.70;14.25;;;;;;;;;;10358949;28;20022;-86
2022/09/01 03:57:09;;;;;;;29.73;15.38;;;;;;;;;;10358128;28;20172;-80
2022/09/01 04:02:09;;;;;;;24.88;14.10;;;;;;;;;;10357097;28;20080;-82
2022/09/01 04:07:10;;;;;;;28.23;14.60;;;;;;;;;;10357000;28;20022;-82
2022/09/01 04:12:14;;;;;;;22.58;14.35;;;;;;;;;;10357537;28;20141;-82
2022/09/01 04:22:37;;;;;;;25.50;15.50;;;;;;;;;;10363655;28;20037;-88
2022/09/01 04:27:39;;;;;;;24.17;13.02;;;;;;;;;;10381635;28;20014;-79
2022/09/01 04:32:39;;;;;;;23.88;13.55;;;;;;;;;;10368035;28;20464;-82
2022/09/01 04:37:40;;;;;;;21.45;13.10;;;;;;;;;;10364777;28;20053;-79
2022/09/01 04:42:40;;;;;;;20.55;12.32;;;;;;;;;;10364680;28;20084;-79
2022/09/01 04:47:41;;;;;;;21.05;12.65;;;;;;;;;;10364589;28;20030;-79
2022/09/01 04:52:46;;;;;;;26.13;13.38;;;;;;;;;;10364640;28;20022;-80
2022/09/01 04:57:48;;;;;;;21.48;13.18;;;;;;;;;;10364893;28;20038;-84
2022/09/01 05:02:52;;;;;;;26.30;14.73;;;;;;;;;;10364709;28;20018;-79
2022/09/01 05:07:54;;;;;;;25.90;15.18;;;;;;;;;;10372669;28;20430;-85
2022/09/01 05:12:56;;;;;;;24.45;13.02;;;;;;;;;;10348756;28;20021;-84
2022/09/01 05:18:01;;;;;;;23.90;12.57;;;;;;;;;;10375263;28;20119;-84
2022/09/01 05:23:01;;;;;;;24.70;14.05;;;;;;;;;;10365094;28;20017;-82
2022/09/01 05:28:02;;;;;;;21.73;12.57;;;;;;;;;;10371001;28;20079;-81
2022/09/01 05:33:03;;;;;;;23.15;12.48;;;;;;;;;;10374864;28;20045;-79
2022/09/01 05:38:04;;;;;;;22.63;13.10;;;;;;;;;;10370200;28;20095;-84
2022/09/01 05:43:06;;;;;;;22.15;11.50;;;;;;;;;;10361133;28;20018;-87
2022/09/01 05:48:08;;;;;;;30.23;14.82;;;;;;;;;;10363611;28;20026;-82
2022/09/01 05:53:14;;;;;;;33.85;17.90;;;;;;;;;;10358552;28;20122;-80
2022/09/01 05:58:16;;;;;;;36.00;16.52;;;;;;;;;;10358537;28;20535;-86
2022/09/01 06:03:16;;;;;;;31.60;14.82;;;;;;;;;;10361381;28;20022;-88
2022/09/01 06:08:21;;;;;;;38.83;13.75;;;;;;;;;;10361765;28;20033;-85
2022/09/01 06:13:22;;;;;;;27.48;14.57;;;;;;;;;;10359842;28;20479;-84
2022/09/01 06:18:22;;;;;;;31.80;13.45;;;;;;;;;;10359788;28;20032;-81
2022/09/01 06:23:23;;;;;;;27.25;14.18;;;;;;;;;;10360841;28;20026;-79
2022/09/01 06:28:24;;;;;;;30.67;14.63;;;;;;;;;;10360764;28;20038;-84
2022/09/01 06:33:25;;;;;;;26.73;12.48;;;;;;;;;;10360916;28;20107;-85
2022/09/01 06:38:26;;;;;;;22.23;13.63;;;;;;;;;;10358590;28;20558;-90
2022/09/01 06:43:29;;;;;;;27.27;14.77;;;;;;;;;;10349830;28;20053;-81
2022/09/01 06:48:29;;;;;;;28.58;13.02;;;;;;;;;;10359780;28;20603;-81
2022/09/01 06:53:30;;;;;;;27.13;14.02;;;;;;;;;;10346024;28;20038;-86
2022/09/01 06:58:31;;;;;;;27.25;14.02;;;;;;;;;;10340934;28;20029;-75
2022/09/01 07:03:32;;;;;;;30.98;14.80;;;;;;;;;;10349793;28;20038;-78
2022/09/01 07:08:36;;;;;;;30.35;16.42;;;;;;;;;;10362374;28;20037;-77
2022/09/01 07:13:36;;;;;;;26.35;15.50;;;;;;;;;;10345343;28;20057;-71
2022/09/01 07:18:36;;;;;;;29.70;15.68;;;;;;;;;;10351365;28;20393;-70
2022/09/01 07:23:38;;;;;;;27.63;15.23;;;;;;;;;;10354367;28;20021;-76
2022/09/01 07:28:38;;;;;;;31.85;15.38;;;;;;;;;;10341551;28;20427;-74
2022/09/01 07:33:38;;;;;;;30.58;15.63;;;;;;;;;;10347822;28;20081;-76
2022/09/01 07:38:38;;;;;;;31.10;13.95;;;;;;;;;;10349221;28;20033;-77
2022/09/01 07:43:43;;;;;;;25.00;14.05;;;;;;;;;;10339826;28;20026;-82
2022/09/01 07:48:44;;;;;;;22.63;13.70;;;;;;;;;;10349692;28;20033;-81
2022/09/01 07:53:47;;;;;;;25.50;13.57;;;;;;;;;;10350547;28;20033;-79
2022/09/01 07:58:48;;;;;;;24.65;13.35;;;;;;;;;;10353074;28;20411;-77
2022/09/01 08:03:50;;;;;;;22.88;13.23;;;;;;;;;;10371810;28;20442;-84
2022/09/01 08:08:51;;;;;;;24.45;12.70;;;;;;;;;;10355951;28;20087;-85
2022/09/01 08:13:52;;;;;;;21.15;11.38;;;;;;;;;;10357072;28;20029;-81
2022/09/01 08:18:52;;;;;;;21.73;10.90;;;;;;;;;;10353970;28;20033;-78
2022/09/01 08:23:53;;;;;;;22.33;10.90;;;;;;;;;;10364327;28;20042;-76
2022/09/01 08:28:54;;;;;;;19.55;10.73;;;;;;;;;;10354223;28;20045;-73
2022/09/01 08:33:55;;;;;;;17.10;10.55;;;;;;;;;;10353161;28;20060;-79
2022/09/01 08:38:55;;;;;;;16.25;10.63;;;;;;;;;;10349640;28;20046;-74
2022/09/01 08:44:05;;;;;;;21.38;10.90;;;;;;;;;;10361665;28;20062;-74
2022/09/01 08:49:13;;;;;;;12.70;7.65;;;;;;;;;;10350372;28;20039;-75
2022/09/01 08:54:21;;;;;;;18.98;9.25;;;;;;;;;;10355799;28;20825;-77
2022/09/01 08:59:21;;;;;;;18.27;10.48;;;;;;;;;;10366134;28;20026;-77
2022/09/01 09:04:22;;;;;;;17.50;9.68;;;;;;;;;;10350740;28;20041;-76
2022/09/01 09:09:30;;;;;;;14.95;10.77;;;;;;;;;;10362156;28;20147;-77
2022/09/01 09:14:33;;;;;;;16.95;10.10;;;;;;;;;;10367989;28;20109;-78
2022/09/01 09:19:39;;;;;;;18.02;9.90;;;;;;;;;;10350445;28;20068;-79
2022/09/01 09:24:51;;;;;;;16.38;10.02;;;;;;;;;;10356487;28;20026;-76
2022/09/01 09:29:53;;;;;;;27.17;10.43;;;;;;;;;;10361429;28;20131;-78
2022/09/01 09:34:53;;;;;;;19.27;11.00;;;;;;;;;;10344143;28;20058;-77
2022/09/01 09:40:17;;;;;;;18.67;10.18;;;;;;;;;;10373571;28;20560;-76
2022/09/01 09:45:23;;;;;;;17.75;9.77;;;;;;;;;;10347126;28;20050;-74
2022/09/01 09:50:25;;;;;;;10.45;6.43;;;;;;;;;;10360579;28;20120;-75
2022/09/01 09:55:27;;;;;;;16.48;7.38;;;;;;;;;;10377222;28;20034;-77
2022/09/01 10:00:29;;;;;;;11.55;7.03;;;;;;;;;;10375163;28;20037;-77
2022/09/01 10:05:39;;;;;;;20.23;9.00;;;;;;;;;;10370769;28;20499;-78
2022/09/01 10:10:41;;;;;;;13.30;7.60;;;;;;;;;;10358991;28;20041;-77
2022/09/01 10:15:45;;;;;;;14.95;7.82;;;;;;;;;;10361266;28;20018;-78
2022/09/01 10:21:04;;;;;;;14.05;8.82;;;;;;;;;;10358995;28;20029;-74
2022/09/01 10:26:14;;;;;;;13.20;8.40;;;;;;;;;;10367927;28;20534;-84
2022/09/01 10:31:14;;;;;;;12.70;7.50;;;;;;;;;;10399117;28;20401;-82
2022/09/01 10:36:14;;;;;;;12.30;7.70;;;;;;;;;;10380676;28;20053;-82
2022/09/01 10:41:33;;;;;;;12.02;8.27;;;;;;;;;;10351124;28;20084;-78
2022/09/01 10:46:37;;;;;;;15.18;9.40;;;;;;;;;;10362818;28;20121;-80
2022/09/01 10:51:41;;;;;;;13.57;8.68;;;;;;;;;;10362950;28;20467;-82
2022/09/01 10:56:45;;;;;;;20.88;8.90;;;;;;;;;;10347084;28;20119;-77
2022/09/01 11:01:46;;;;;;;16.05;8.93;;;;;;;;;;10356698;28;20486;-81
2022/09/01 11:06:46;;;;;;;20.77;9.23;;;;;;;;;;10347819;28;20472;-79
2022/09/01 11:12:05;;;;;;;15.07;8.80;;;;;;;;;;10343416;28;20409;-81
2022/09/01 11:17:11;;;;;;;18.35;9.82;;;;;;;;;;10354449;28;20395;-83
2022/09/01 11:22:11;;;;;;;17.33;8.93;;;;;;;;;;10341648;28;20049;-83
2022/09/01 11:27:32;;;;;;;14.60;8.48;;;;;;;;;;10350349;28;20388;-80
2022/09/01 11:32:37;;;;;;;12.85;8.65;;;;;;;;;;10350248;28;20041;-80
2022/09/01 11:37:38;;;;;;;16.40;8.48;;;;;;;;;;10335726;28;20141;-79
2022/09/01 11:42:41;;;;;;;15.13;7.90;;;;;;;;;;10322800;28;20093;-77
2022/09/01 11:47:44;;;;;;;14.32;8.45;;;;;;;;;;10347042;28;20026;-78
2022/09/01 11:53:11;;;;;;;10.68;7.47;;;;;;;;;;10338258;28;20045;-78
2022/09/01 11:58:13;;;;;;;12.40;8.77;;;;;;;;;;10334484;28;20037;-77
2022/09/01 12:03:22;;;;;;;12.20;8.70;;;;;;;;;;10339360;28;20112;-76
2022/09/01 12:08:22;;;;;;;15.65;9.25;;;;;;;;;;10325621;28;20483;-80
2022/09/01 12:13:22;;;;;;;19.80;9.68;;;;;;;;;;10341917;28;20088;-76
2022/09/01 12:18:25;;;;;;;19.92;8.65;;;;;;;;;;10346401;28;20041;-80
2022/09/01 12:23:30;;;;;;;17.25;9.35;;;;;;;;;;10340348;28;20018;-78
2022/09/01 12:28:32;;;;;;;15.38;8.05;;;;;;;;;;10360828;28;20530;-75
2022/09/01 12:33:33;;;;;;;16.33;9.55;;;;;;;;;;10365125;28;20601;-80
2022/09/01 12:38:33;;;;;;;20.52;9.32;;;;;;;;;;10345000;28;20042;-79
2022/09/01 12:43:35;;;;;;;29.85;9.88;;;;;;;;;;10342656;28;20030;-75
2022/09/01 12:48:37;;;;;;;15.95;9.30;;;;;;;;;;10346443;28;20032;-79
2022/09/01 12:53:37;;;;;;;19.20;10.40;;;;;;;;;;10342045;28;20038;-79
2022/09/01 12:58:39;;;;;;;17.75;9.85;;;;;;;;;;10363880;28;20463;-78
2022/09/01 13:03:39;;;;;;;16.00;9.48;;;;;;;;;;10372017;28;20021;-78
2022/09/01 13:08:39;;;;;;;18.95;10.52;;;;;;;;;;10353616;28;20026;-74
2022/09/01 13:13:40;;;;;;;16.35;9.52;;;;;;;;;;10348088;28;20084;-76
2022/09/01 13:18:41;;;;;;;18.38;9.50;;;;;;;;;;10357155;28;20508;-74
2022/09/01 13:23:41;;;;;;;19.98;10.60;;;;;;;;;;10346725;28;20047;-73
2022/09/01 13:28:42;;;;;;;28.15;10.52;;;;;;;;;;10356264;28;20498;-78
2022/09/01 13:33:42;;;;;;;15.57;10.07;;;;;;;;;;10356948;28;20062;-74
2022/09/01 13:38:43;;;;;;;17.48;10.68;;;;;;;;;;10350818;28;20029;-74
2022/09/01 13:43:43;;;;;;;25.15;11.02;;;;;;;;;;10363261;28;20125;-74
2022/09/01 13:48:43;;;;;;;25.57;14.80;;;;;;;;;;10366112;28;20223;-76
2022/09/01 13:53:43;;;;;;;25.73;15.95;;;;;;;;;;10348533;28;20490;-78
2022/09/01 13:58:44;;;;;;;21.90;13.93;;;;;;;;;;10353840;28;20499;-81
2022/09/01 14:03:44;;;;;;;24.13;12.93;;;;;;;;;;10356299;28;20623;-78
2022/09/01 14:08:44;;;;;;;20.83;13.57;;;;;;;;;;10367201;28;20034;-81
2022/09/01 14:13:45;;;;;;;18.73;11.60;;;;;;;;;;10351586;28;20037;-78
2022/09/01 14:18:45;;;;;;;24.73;12.02;;;;;;;;;;10350775;28;20075;-74
2022/09/01 14:23:46;;;;;;;18.58;11.93;;;;;;;;;;10346564;28;20034;-74
2022/09/01 14:28:47;;;;;;;18.13;12.67;;;;;;;;;;10342519;28;20156;-79
2022/09/01 14:33:48;;;;;;;21.30;12.77;;;;;;;;;;10344671;28;20062;-74
2022/09/01 14:38:49;;;;;;;23.90;14.00;;;;;;;;;;10343467;28;20017;-75
2022/09/01 14:43:53;;;;;;;19.15;13.82;;;;;;;;;;10344400;28;20046;-75
2022/09/01 14:48:53;;;;;;;19.48;13.77;;;;;;;;;;10343215;28;20431;-75
2022/09/01 14:53:54;;;;;;;22.70;13.07;;;;;;;;;;10343777;28;20096;-80
2022/09/01 14:58:59;;;;;;;20.25;12.30;;;;;;;;;;10348439;28;20030;-78
2022/09/01 15:03:59;;;;;;;24.27;12.57;;;;;;;;;;10344996;28;20026;-77
2022/09/01 15:09:01;;;;;;;18.33;12.18;;;;;;;;;;10342630;28;20103;-78
2022/09/01 15:14:02;;;;;;;19.13;12.55;;;;;;;;;;10357595;28;20026;-78
2022/09/01 15:19:02;;;;;;;24.38;13.20;;;;;;;;;;10355927;28;20547;-76
2022/09/01 15:24:02;;;;;;;22.20;13.90;;;;;;;;;;10341152;28;20511;-79
2022/09/01 15:29:03;;;;;;;20.03;14.40;;;;;;;;;;10346273;28;20035;-78
2022/09/01 15:34:04;;;;;;;22.00;13.27;;;;;;;;;;10343268;28;20088;-77
2022/09/01 15:39:05;;;;;;;18.90;12.15;;;;;;;;;;10341077;28;20109;-78
2022/09/01 15:44:06;;;;;;;23.70;13.05;;;;;;;;;;10346420;28;20080;-74
2022/09/01 15:49:08;;;;;;;21.40;14.07;;;;;;;;;;10359887;28;20028;-79
2022/09/01 15:54:10;;;;;;;24.27;14.10;;;;;;;;;;10348516;28;20041;-78
2022/09/01 15:59:10;;;;;;;28.92;15.73;;;;;;;;;;10340632;28;20053;-79
2022/09/01 16:04:13;;;;;;;23.93;13.43;;;;;;;;;;10350017;28;20184;-73
2022/09/01 16:09:13;;;;;;;20.40;13.50;;;;;;;;;;10359201;28;20277;-74
2022/09/01 16:14:14;;;;;;;19.70;12.63;;;;;;;;;;10357790;28;20042;-76
2022/09/01 16:19:24;;;;;;;24.17;14.27;;;;;;;;;;10343219;28;20096;-73
2022/09/01 16:24:24;;;;;;;24.20;15.25;;;;;;;;;;10362121;28;20034;-77
2022/09/01 16:29:24;;;;;;;20.77;13.63;;;;;;;;;;10362871;28;20531;-73
2022/09/01 16:34:25;;;;;;;22.30;13.98;;;;;;;;;;10369586;28;20050;-77
2022/09/01 16:39:25;;;;;;;24.83;14.20;;;;;;;;;;10348568;28;20036;-73
2022/09/01 16:44:39;;;;;;;24.67;13.35;;;;;;;;;;10366948;28;20502;-77
2022/09/01 16:49:50;;;;;;;23.65;13.13;;;;;;;;;;10345889;28;20026;-78
2022/09/01 16:55:11;;;;;;;19.23;13.30;;;;;;;;;;10350943;28;20029;-76
2022/09/01 17:00:13;;;;;;;24.67;14.55;;;;;;;;;;10362578;28;20076;-76
2022/09/01 17:05:15;;;;;;;23.38;15.48;;;;;;;;;;10379729;28;20360;-80
2022/09/01 17:10:34;;;;;;;24.80;15.13;;;;;;;;;;10338070;28;20042;-80
2022/09/01 17:15:39;;;;;;;29.42;15.35;;;;;;;;;;10375005;28;20037;-78
2022/09/01 17:20:41;;;;;;;29.05;16.17;;;;;;;;;;10377926;28;20104;-78
2022/09/01 17:25:50;;;;;;;25.23;15.40;;;;;;;;;;10377863;28;20023;-73
2022/09/01 17:31:17;;;;;;;22.25;14.13;;;;;;;;;;10361852;28;20539;-73
2022/09/01 17:36:22;;;;;;;24.88;14.25;;;;;;;;;;10352633;28;20095;-74
2022/09/01 17:41:33;;;;;;;27.48;14.82;;;;;;;;;;10361695;28;20079;-78
2022/09/01 17:46:41;;;;;;;20.58;11.98;;;;;;;;;;10362810;28;20025;-79
2022/09/01 17:51:47;;;;;;;23.35;13.35;;;;;;;;;;10361124;28;20471;-78
2022/09/01 17:56:50;;;;;;;26.73;13.60;;;;;;;;;;10360507;28;20069;-78
2022/09/01 18:02:08;;;;;;;19.17;11.85;;;;;;;;;;10358511;28;20030;-77
2022/09/01 18:07:31;;;;;;;20.10;12.25;;;;;;;;;;10369214;28;20080;-75
2022/09/01 18:12:34;;;;;;;24.80;13.65;;;;;;;;;;10369570;28;20038;-76
2022/09/01 18:17:39;;;;;;;20.77;11.57;;;;;;;;;;10337742;28;20065;-79
2022/09/01 18:22:59;;;;;;;16.70;11.38;;;;;;;;;;10352771;28;20117;-84
2022/09/01 18:27:59;;;;;;;21.33;11.35;;;;;;;;;;10345952;28;20046;-84
2022/09/01 18:33:20;;;;;;;18.23;12.13;;;;;;;;;;10359899;28;20583;-81
2022/09/01 18:38:39;;;;;;;20.60;12.20;;;;;;;;;;10352575;28;20034;-80
2022/09/01 18:43:45;;;;;;;20.73;12.32;;;;;;;;;;10366431;28;20113;-80
2022/09/01 18:49:04;;;;;;;25.42;13.52;;;;;;;;;;10365008;28;20500;-83
2022/09/01 18:54:14;;;;;;;19.67;11.90;;;;;;;;;;10369721;28;20458;-84
2022/09/01 18:59:37;;;;;;;17.20;11.23;;;;;;;;;;10357060;28;20034;-83
2022/09/01 19:04:41;;;;;;;18.52;10.30;;;;;;;;;;10349331;28;20040;-80
2022/09/01 19:10:01;;;;;;;15.35;11.00;;;;;;;;;;10362780;28;20027;-81
2022/09/01 19:15:20;;;;;;;24.20;12.65;;;;;;;;;;10346798;28;20088;-83
2022/09/01 19:20:39;;;;;;;32.42;12.70;;;;;;;;;;10366849;28;20034;-84
2022/09/01 19:25:42;;;;;;;17.60;11.43;;;;;;;;;;10347276;28;20026;-84
2022/09/01 19:30:48;;;;;;;22.42;13.63;;;;;;;;;;10351128;28;20495;-80
2022/09/01 19:35:50;;;;;;;22.55;13.88;;;;;;;;;;10352997;28;20061;-84
2022/09/01 19:40:51;;;;;;;20.40;11.60;;;;;;;;;;10349598;28;20459;-80
2022/09/01 19:46:16;;;;;;;22.33;12.95;;;;;;;;;;10359127;28;20080;-81
2022/09/01 19:51:16;;;;;;;22.33;13.82;;;;;;;;;;10344981;28;20030;-80
2022/09/01 19:56:27;;;;;;;24.83;12.50;;;;;;;;;;10352983;28;20037;-81
2022/09/01 20:01:46;;;;;;;22.55;13.25;;;;;;;;;;10361572;28;20014;-85
2022/09/01 20:06:50;;;;;;;20.95;13.98;;;;;;;;;;10368722;28;20053;-85
2022/09/01 20:12:09;;;;;;;25.08;13.25;;;;;;;;;;10347162;28;20450;-84
2022/09/01 20:17:09;;;;;;;;;;;;;;;;;;10367652;28;20046;-85
2022/09/01 20:22:28;;;;;;;23.67;12.93;;;;;;;;;;10371237;28;19983;-81
2022/09/01 20:27:34;;;;;;;22.25;13.15;;;;;;;;;;10349092;28;20025;-81
2022/09/01 20:32:34;;;;;;;20.60;12.70;;;;;;;;;;10347030;28;20038;-80
2022/09/01 20:37:50;;;;;;;18.55;13.63;;;;;;;;;;10367969;28;20281;-89
2022/09/01 20:43:11;;;;;;;23.50;14.55;;;;;;;;;;10332459;28;20022;-80
2022/09/01 20:48:14;;;;;;;20.00;13.80;;;;;;;;;;10352245;28;20027;-84
2022/09/01 20:53:30;;;;;;;20.80;13.30;;;;;;;;;;10353428;28;20041;-83
2022/09/01 20:58:32;;;;;;;23.58;13.38;;;;;;;;;;10361371;28;20022;-84
2022/09/01 21:03:37;;;;;;;24.70;14.25;;;;;;;;;;10349095;28;20038;-84
2022/09/01 21:08:38;;;;;;;26.63;18.30;;;;;;;;;;10356403;28;20084;-82
2022/09/01 21:13:41;;;;;;;25.08;13.07;;;;;;;;;;10362748;28;20060;-76
2022/09/01 21:19:00;;;;;;;25.80;14.80;;;;;;;;;;10356368;28;20044;-84
2022/09/01 21:24:00;;;;;;;25.00;15.23;;;;;;;;;;10342358;28;20067;-81
2022/09/01 21:29:07;;;;;;;22.27;13.55;;;;;;;;;;10365651;28;20028;-84
2022/09/01 21:34:07;;;;;;;22.33;14.52;;;;;;;;;;10369528;28;20042;-84
2022/09/01 21:39:07;;;;;;;27.33;14.45;;;;;;;;;;10375013;28;20033;-87
2022/09/01 21:44:08;;;;;;;24.45;13.48;;;;;;;;;;10358310;28;20018;-84
2022/09/01 21:49:09;;;;;;;21.38;13.38;;;;;;;;;;10378071;28;20423;-83
2022/09/01 21:54:09;;;;;;;19.45;13.48;;;;;;;;;;10329247;28;20049;-82
2022/09/01 21:59:12;;;;;;;22.73;12.75;;;;;;;;;;10367890;28;20207;-88
2022/09/01 22:04:12;;;;;;;23.60;14.18;;;;;;;;;;10364003;28;20050;-82
2022/09/01 22:09:12;;;;;;;20.65;13.43;;;;;;;;;;10384407;28;20609;-80
2022/09/01 22:14:13;;;;;;;23.23;13.07;;;;;;;;;;10356621;28;20025;-84
2022/09/01 22:19:13;;;;;;;21.95;12.65;;;;;;;;;;10371834;28;20039;-80
2022/09/01 22:24:14;;;;;;;19.20;11.85;;;;;;;;;;10363231;28;20018;-83
2022/09/01 22:29:16;;;;;;;19.83;12.73;;;;;;;;;;10362922;28;20018;-84
2022/09/01 22:34:16;;;;;;;25.58;12.25;;;;;;;;;;10356783;28;20056;-83
2022/09/01 22:39:17;;;;;;;17.65;11.48;;;;;;;;;;10358391;28;20045;-82
2022/09/01 22:44:18;;;;;;;22.80;13.13;;;;;;;;;;10361387;28;20152;-81
2022/09/01 22:49:18;;;;;;;20.20;11.75;;;;;;;;;;10353339;28;20030;-84
2022/09/01 22:54:19;;;;;;;25.67;13.40;;;;;;;;;;10350504;28;20092;-86
2022/09/01 22:59:48;;;;;;;18.98;12.18;;;;;;;;;;10381302;28;20060;-84
2022/09/01 23:04:49;;;;;;;18.13;12.38;;;;;;;;;;10362524;28;20698;-83
2022/09/01 23:09:49;;;;;;;21.80;14.23;;;;;;;;;;10377274;28;20017;-80
2022/09/01 23:14:50;;;;;;;20.42;13.63;;;;;;;;;;10379348;28;20104;-84
2022/09/01 23:19:50;;;;;;;23.17;14.02;;;;;;;;;;10379658;28;20462;-82
2022/09/01 23:24:50;;;;;;;31.10;14.00;;;;;;;;;;10362200;28;20087;-83
2022/09/01 23:29:51;;;;;;;20.55;14.23;;;;;;;;;;10376120;28;20018;-82
2022/09/01 23:34:52;;;;;;;27.42;13.95;;;;;;;;;;10367627;28;20121;-86
2022/09/01 23:39:52;;;;;;;21.42;13.82;;;;;;;;;;10362715;28;20022;-86
2022/09/01 23:44:53;;;;;;;19.50;12.95;;;;;;;;;;10362303;28;20029;-81
2022/09/01 23:49:55;;;;;;;20.07;13.27;;;;;;;;;;10376100;28;20557;-84
2022/09/01 23:54:56;;;;;;;20.95;13.82;;;;;;;;;;10360387;28;20616;-84
2022/09/01 23:59:56;;;;;;;23.65;13.35;;;;;;;;;;10361218;28;20087;-83
